sensor_id;sensor_type;location;lat;lon;timestamp;temperature;humidity
37870;DHT22;62531;53.326;-1.368;2022-09-13T00:00:22;23.20;58.30
37870;DHT22;62531;53.326;-1.368;2022-09-13T00:04:23;23.20;58.30
37870;DHT22;62531;53.326;-1.368;2022-09-13T00:08:24;23.20;58.20
37870;DHT22;62531;53.326;-1.368;2022-09-13T00:12:25;23.20;58.20
37870;DHT22;62531;53.326;-1.368;2022-09-13T00:16:28;23.10;58.10
37870;DHT22;62531;53.326;-1.368;2022-09-13T00:20:29;23.20;58.10
37870;DHT22;62531;53.326;-1.368;2022-09-13T00:24:30;23.10;58.00
37870;DHT22;62531;53.326;-1.368;2022-09-13T00:28:34;23.20;58.00
37870;DHT22;62531;53.326;-1.368;2022-09-13T00:32:35;23.10;57.90
37870;DHT22;62531;53.326;-1.368;2022-09-13T00:36:37;23.10;57.90
37870;DHT22;62531;53.326;-1.368;2022-09-13T00:40:38;23.10;57.90
37870;DHT22;62531;53.326;-1.368;2022-09-13T00:44:52;23.10;57.80
37870;DHT22;62531;53.326;-1.368;2022-09-13T00:49:00;23.10;57.80
37870;DHT22;62531;53.326;-1.368;2022-09-13T00:53:16;23.10;57.80
37870;DHT22;62531;53.326;-1.368;2022-09-13T00:57:18;23.10;57.70
37870;DHT22;62531;53.326;-1.368;2022-09-13T01:01:25;23.10;57.70
37870;DHT22;62531;53.326;-1.368;2022-09-13T01:05:35;23.00;57.60
37870;DHT22;62531;53.326;-1.368;2022-09-13T01:09:42;23.00;57.60
37870;DHT22;62531;53.326;-1.368;2022-09-13T01:13:44;23.00;57.50
37870;DHT22;62531;53.326;-1.368;2022-09-13T01:17:48;23.00;57.50
37870;DHT22;62531;53.326;-1.368;2022-09-13T01:30:41;23.00;57.40
37870;DHT22;62531;53.326;-1.368;2022-09-13T01:39:06;23.00;57.30
37870;DHT22;62531;53.326;-1.368;2022-09-13T01:43:46;23.00;57.30
37870;DHT22;62531;53.326;-1.368;2022-09-13T01:48:02;22.90;57.20
37870;DHT22;62531;53.326;-1.368;2022-09-13T02:05:14;22.90;57.00
37870;DHT22;62531;53.326;-1.368;2022-09-13T02:09:21;22.90;57.00
37870;DHT22;62531;53.326;-1.368;2022-09-13T02:13:27;22.90;56.90
37870;DHT22;62531;53.326;-1.368;2022-09-13T02:17:37;22.90;56.90
37870;DHT22;62531;53.326;-1.368;2022-09-13T02:21:45;22.90;56.90
37870;DHT22;62531;53.326;-1.368;2022-09-13T02:25:50;22.90;56.80
37870;DHT22;62531;53.326;-1.368;2022-09-13T02:29:55;22.80;56.70
37870;DHT22;62531;53.326;-1.368;2022-09-13T02:34:00;22.80;56.70
37870;DHT22;62531;53.326;-1.368;2022-09-13T02:42:55;22.80;56.60
37870;DHT22;62531;53.326;-1.368;2022-09-13T02:47:10;22.80;56.60
37870;DHT22;62531;53.326;-1.368;2022-09-13T02:51:31;22.80;56.60
37870;DHT22;62531;53.326;-1.368;2022-09-13T02:59:56;22.80;56.50
37870;DHT22;62531;53.326;-1.368;2022-09-13T03:03:57;22.70;56.50
37870;DHT22;62531;53.326;-1.368;2022-09-13T03:08:00;22.70;56.40
37870;DHT22;62531;53.326;-1.368;2022-09-13T03:24:27;22.70;56.30
37870;DHT22;62531;53.326;-1.368;2022-09-13T03:37:50;22.60;56.10
37870;DHT22;62531;53.326;-1.368;2022-09-13T03:41:57;22.60;56.10
37870;DHT22;62531;53.326;-1.368;2022-09-13T03:46:34;22.70;56.10
37870;DHT22;62531;53.326;-1.368;2022-09-13T03:50:38;22.60;56.10
37870;DHT22;62531;53.326;-1.368;2022-09-13T03:54:42;22.60;56.00
37870;DHT22;62531;53.326;-1.368;2022-09-13T03:58:47;22.60;56.00
37870;DHT22;62531;53.326;-1.368;2022-09-13T04:02:49;22.60;56.00
37870;DHT22;62531;53.326;-1.368;2022-09-13T04:06:51;22.60;55.90
37870;DHT22;62531;53.326;-1.368;2022-09-13T04:10:52;22.60;55.90
37870;DHT22;62531;53.326;-1.368;2022-09-13T04:14:54;22.60;55.90
37870;DHT22;62531;53.326;-1.368;2022-09-13T04:18:56;22.60;55.80
37870;DHT22;62531;53.326;-1.368;2022-09-13T04:22:57;22.50;55.80
37870;DHT22;62531;53.326;-1.368;2022-09-13T04:27:01;22.50;55.70
37870;DHT22;62531;53.326;-1.368;2022-09-13T04:31:03;22.60;55.80
37870;DHT22;62531;53.326;-1.368;2022-09-13T04:35:04;22.50;55.70
37870;DHT22;62531;53.326;-1.368;2022-09-13T04:39:08;22.50;55.70
37870;DHT22;62531;53.326;-1.368;2022-09-13T04:43:12;22.50;55.60
37870;DHT22;62531;53.326;-1.368;2022-09-13T04:47:14;22.50;55.60
37870;DHT22;62531;53.326;-1.368;2022-09-13T04:51:15;22.50;55.60
37870;DHT22;62531;53.326;-1.368;2022-09-13T04:55:17;22.50;55.60
37870;DHT22;62531;53.326;-1.368;2022-09-13T04:59:18;22.40;55.50
37870;DHT22;62531;53.326;-1.368;2022-09-13T05:03:19;22.40;55.50
37870;DHT22;62531;53.326;-1.368;2022-09-13T05:07:21;22.40;55.40
37870;DHT22;62531;53.326;-1.368;2022-09-13T05:11:25;22.40;55.40
37870;DHT22;62531;53.326;-1.368;2022-09-13T05:15:27;22.40;55.40
37870;DHT22;62531;53.326;-1.368;2022-09-13T05:19:28;22.40;55.30
37870;DHT22;62531;53.326;-1.368;2022-09-13T05:23:30;22.40;55.30
37870;DHT22;62531;53.326;-1.368;2022-09-13T05:27:32;22.40;55.30
37870;DHT22;62531;53.326;-1.368;2022-09-13T05:31:36;22.40;55.30
37870;DHT22;62531;53.326;-1.368;2022-09-13T05:35:39;22.40;55.30
37870;DHT22;62531;53.326;-1.368;2022-09-13T05:39:40;22.40;55.30
37870;DHT22;62531;53.326;-1.368;2022-09-13T05:43:42;22.30;55.20
37870;DHT22;62531;53.326;-1.368;2022-09-13T05:47:43;22.30;55.10
37870;DHT22;62531;53.326;-1.368;2022-09-13T05:51:45;22.30;55.10
37870;DHT22;62531;53.326;-1.368;2022-09-13T05:55:46;22.30;55.00
37870;DHT22;62531;53.326;-1.368;2022-09-13T05:59:47;22.30;55.00
37870;DHT22;62531;53.326;-1.368;2022-09-13T06:03:49;22.30;55.00
37870;DHT22;62531;53.326;-1.368;2022-09-13T06:07:51;22.30;54.90
37870;DHT22;62531;53.326;-1.368;2022-09-13T06:11:52;22.30;54.90
37870;DHT22;62531;53.326;-1.368;2022-09-13T06:15:55;22.30;54.90
37870;DHT22;62531;53.326;-1.368;2022-09-13T06:19:57;22.30;54.80
37870;DHT22;62531;53.326;-1.368;2022-09-13T06:23:58;22.30;54.90
37870;DHT22;62531;53.326;-1.368;2022-09-13T06:27:59;22.30;54.90
37870;DHT22;62531;53.326;-1.368;2022-09-13T06:32:04;22.30;54.90
37870;DHT22;62531;53.326;-1.368;2022-09-13T06:36:08;22.30;54.80
37870;DHT22;62531;53.326;-1.368;2022-09-13T06:40:10;22.30;54.80
37870;DHT22;62531;53.326;-1.368;2022-09-13T06:44:12;22.30;54.80
37870;DHT22;62531;53.326;-1.368;2022-09-13T06:48:13;22.20;54.70
37870;DHT22;62531;53.326;-1.368;2022-09-13T06:52:14;22.30;54.80
37870;DHT22;62531;53.326;-1.368;2022-09-13T06:56:30;22.20;54.70
37870;DHT22;62531;53.326;-1.368;2022-09-13T07:00:32;22.20;54.70
37870;DHT22;62531;53.326;-1.368;2022-09-13T07:04:33;22.20;54.70
37870;DHT22;62531;53.326;-1.368;2022-09-13T07:08:35;22.20;54.60
37870;DHT22;62531;53.326;-1.368;2022-09-13T07:12:36;22.20;54.60
37870;DHT22;62531;53.326;-1.368;2022-09-13T07:16:37;22.10;54.40
37870;DHT22;62531;53.326;-1.368;2022-09-13T07:20:38;22.10;54.40
37870;DHT22;62531;53.326;-1.368;2022-09-13T07:24:39;22.10;54.30
37870;DHT22;62531;53.326;-1.368;2022-09-13T07:28:43;22.10;54.30
37870;DHT22;62531;53.326;-1.368;2022-09-13T07:32:44;22.10;54.30
37870;DHT22;62531;53.326;-1.368;2022-09-13T07:36:47;22.10;54.20
37870;DHT22;62531;53.326;-1.368;2022-09-13T07:40:57;22.10;54.10
37870;DHT22;62531;53.326;-1.368;2022-09-13T07:44:58;22.10;54.00
37870;DHT22;62531;53.326;-1.368;2022-09-13T07:49:00;22.10;53.90
37870;DHT22;62531;53.326;-1.368;2022-09-13T07:53:01;22.00;54.50
37870;DHT22;62531;53.326;-1.368;2022-09-13T07:57:03;22.00;55.20
37870;DHT22;62531;53.326;-1.368;2022-09-13T08:05:08;22.10;55.60
37870;DHT22;62531;53.326;-1.368;2022-09-13T08:09:10;22.20;55.90
37870;DHT22;62531;53.326;-1.368;2022-09-13T08:13:11;22.20;56.10
37870;DHT22;62531;53.326;-1.368;2022-09-13T08:17:12;22.20;56.10
37870;DHT22;62531;53.326;-1.368;2022-09-13T08:21:14;22.20;53.70
37870;DHT22;62531;53.326;-1.368;2022-09-13T08:25:15;22.10;53.20
37870;DHT22;62531;53.326;-1.368;2022-09-13T08:29:17;22.10;54.40
37870;DHT22;62531;53.326;-1.368;2022-09-13T08:33:18;22.20;54.60
37870;DHT22;62531;53.326;-1.368;2022-09-13T08:37:19;22.20;55.10
37870;DHT22;62531;53.326;-1.368;2022-09-13T08:45:28;22.30;55.50
37870;DHT22;62531;53.326;-1.368;2022-09-13T08:49:33;22.30;55.50
37870;DHT22;62531;53.326;-1.368;2022-09-13T08:53:46;22.30;55.60
37870;DHT22;62531;53.326;-1.368;2022-09-13T09:06:01;22.40;55.70
37870;DHT22;62531;53.326;-1.368;2022-09-13T09:10:36;22.40;55.70
37870;DHT22;62531;53.326;-1.368;2022-09-13T09:14:46;22.50;55.70
37870;DHT22;62531;53.326;-1.368;2022-09-13T09:18:53;22.50;55.60
37870;DHT22;62531;53.326;-1.368;2022-09-13T09:23:03;22.50;55.60
37870;DHT22;62531;53.326;-1.368;2022-09-13T09:27:17;22.50;55.50
37870;DHT22;62531;53.326;-1.368;2022-09-13T09:31:32;22.60;55.60
37870;DHT22;62531;53.326;-1.368;2022-09-13T09:39:40;22.60;55.60
37870;DHT22;62531;53.326;-1.368;2022-09-13T09:47:59;22.60;55.50
37870;DHT22;62531;53.326;-1.368;2022-09-13T09:52:02;22.70;55.40
37870;DHT22;62531;53.326;-1.368;2022-09-13T09:56:25;22.70;55.50
37870;DHT22;62531;53.326;-1.368;2022-09-13T10:00:34;22.70;55.80
37870;DHT22;62531;53.326;-1.368;2022-09-13T10:04:35;22.70;55.20
37870;DHT22;62531;53.326;-1.368;2022-09-13T10:08:38;22.70;54.70
37870;DHT22;62531;53.326;-1.368;2022-09-13T10:12:40;22.70;55.10
37870;DHT22;62531;53.326;-1.368;2022-09-13T10:16:41;22.70;55.40
37870;DHT22;62531;53.326;-1.368;2022-09-13T10:25:23;22.80;55.60
37870;DHT22;62531;53.326;-1.368;2022-09-13T10:29:26;22.70;55.50
37870;DHT22;62531;53.326;-1.368;2022-09-13T10:33:29;22.80;55.50
37870;DHT22;62531;53.326;-1.368;2022-09-13T10:37:31;22.80;55.50
37870;DHT22;62531;53.326;-1.368;2022-09-13T10:41:38;22.80;55.50
37870;DHT22;62531;53.326;-1.368;2022-09-13T10:45:41;22.80;55.50
37870;DHT22;62531;53.326;-1.368;2022-09-13T10:49:51;22.80;55.60
37870;DHT22;62531;53.326;-1.368;2022-09-13T10:54:20;22.80;55.40
37870;DHT22;62531;53.326;-1.368;2022-09-13T10:58:23;22.90;55.50
37870;DHT22;62531;53.326;-1.368;2022-09-13T11:16:22;22.90;55.30
37870;DHT22;62531;53.326;-1.368;2022-09-13T11:20:44;22.90;55.30
37870;DHT22;62531;53.326;-1.368;2022-09-13T11:25:16;22.90;55.50
37870;DHT22;62531;53.326;-1.368;2022-09-13T11:33:56;22.90;55.80
37870;DHT22;62531;53.326;-1.368;2022-09-13T11:55:27;23.00;54.70
37870;DHT22;62531;53.326;-1.368;2022-09-13T12:03:47;23.00;54.60
37870;DHT22;62531;53.326;-1.368;2022-09-13T12:08:00;23.00;53.30
37870;DHT22;62531;53.326;-1.368;2022-09-13T12:12:09;23.10;53.10
37870;DHT22;62531;53.326;-1.368;2022-09-13T12:16:17;23.10;52.90
37870;DHT22;62531;53.326;-1.368;2022-09-13T12:20:31;23.10;52.70
37870;DHT22;62531;53.326;-1.368;2022-09-13T12:24:52;23.10;52.70
37870;DHT22;62531;53.326;-1.368;2022-09-13T12:28:58;23.10;52.70
37870;DHT22;62531;53.326;-1.368;2022-09-13T12:33:05;23.10;52.60
37870;DHT22;62531;53.326;-1.368;2022-09-13T12:46:29;23.00;53.70
37870;DHT22;62531;53.326;-1.368;2022-09-13T12:50:49;23.00;54.30
37870;DHT22;62531;53.326;-1.368;2022-09-13T12:59:39;23.00;54.40
37870;DHT22;62531;53.326;-1.368;2022-09-13T13:08:33;23.10;54.60
37870;DHT22;62531;53.326;-1.368;2022-09-13T13:12:37;23.10;54.80
37870;DHT22;62531;53.326;-1.368;2022-09-13T13:16:39;23.10;54.80
37870;DHT22;62531;53.326;-1.368;2022-09-13T13:24:55;23.10;55.00
37870;DHT22;62531;53.326;-1.368;2022-09-13T13:29:17;23.10;55.30
37870;DHT22;62531;53.326;-1.368;2022-09-13T13:33:20;23.20;55.50
37870;DHT22;62531;53.326;-1.368;2022-09-13T13:37:29;23.20;55.60
37870;DHT22;62531;53.326;-1.368;2022-09-13T13:45:33;23.20;55.70
37870;DHT22;62531;53.326;-1.368;2022-09-13T13:53:45;23.30;55.60
37870;DHT22;62531;53.326;-1.368;2022-09-13T13:58:00;23.30;55.50
37870;DHT22;62531;53.326;-1.368;2022-09-13T14:02:04;23.30;55.40
37870;DHT22;62531;53.326;-1.368;2022-09-13T14:06:31;23.30;55.30
37870;DHT22;62531;53.326;-1.368;2022-09-13T14:16:02;23.30;55.40
37870;DHT22;62531;53.326;-1.368;2022-09-13T14:20:12;23.40;55.30
37870;DHT22;62531;53.326;-1.368;2022-09-13T14:24:20;23.30;55.20
37870;DHT22;62531;53.326;-1.368;2022-09-13T14:28:24;23.30;55.10
37870;DHT22;62531;53.326;-1.368;2022-09-13T14:32:28;23.40;55.00
37870;DHT22;62531;53.326;-1.368;2022-09-13T14:36:29;23.40;54.90
37870;DHT22;62531;53.326;-1.368;2022-09-13T14:40:30;23.40;54.90
37870;DHT22;62531;53.326;-1.368;2022-09-13T14:44:32;23.40;54.80
37870;DHT22;62531;53.326;-1.368;2022-09-13T14:48:48;23.50;54.90
37870;DHT22;62531;53.326;-1.368;2022-09-13T14:53:06;23.40;54.80
37870;DHT22;62531;53.326;-1.368;2022-09-13T14:57:18;23.40;54.80
37870;DHT22;62531;53.326;-1.368;2022-09-13T15:01:32;23.40;52.60
37870;DHT22;62531;53.326;-1.368;2022-09-13T15:05:35;23.40;53.90
37870;DHT22;62531;53.326;-1.368;2022-09-13T15:09:36;23.40;53.40
37870;DHT22;62531;53.326;-1.368;2022-09-13T15:13:39;23.30;49.60
37870;DHT22;62531;53.326;-1.368;2022-09-13T15:18:03;23.30;51.70
37870;DHT22;62531;53.326;-1.368;2022-09-13T15:22:24;23.30;51.90
37870;DHT22;62531;53.326;-1.368;2022-09-13T15:26:27;23.30;52.20
37870;DHT22;62531;53.326;-1.368;2022-09-13T15:30:31;23.40;52.50
37870;DHT22;62531;53.326;-1.368;2022-09-13T15:34:45;23.40;52.60
37870;DHT22;62531;53.326;-1.368;2022-09-13T15:38:58;23.40;52.60
37870;DHT22;62531;53.326;-1.368;2022-09-13T15:43:00;23.40;52.70
37870;DHT22;62531;53.326;-1.368;2022-09-13T15:47:08;23.40;52.60
37870;DHT22;62531;53.326;-1.368;2022-09-13T15:51:11;23.40;52.70
37870;DHT22;62531;53.326;-1.368;2022-09-13T15:55:13;23.40;52.70
37870;DHT22;62531;53.326;-1.368;2022-09-13T15:59:17;23.50;53.30
37870;DHT22;62531;53.326;-1.368;2022-09-13T16:03:18;23.50;52.70
37870;DHT22;62531;53.326;-1.368;2022-09-13T16:07:22;23.50;52.70
37870;DHT22;62531;53.326;-1.368;2022-09-13T16:11:24;23.50;52.70
37870;DHT22;62531;53.326;-1.368;2022-09-13T16:15:25;23.50;51.90
37870;DHT22;62531;53.326;-1.368;2022-09-13T16:19:28;23.50;51.50
37870;DHT22;62531;53.326;-1.368;2022-09-13T16:23:29;23.60;51.30
37870;DHT22;62531;53.326;-1.368;2022-09-13T16:27:31;23.60;51.20
37870;DHT22;62531;53.326;-1.368;2022-09-13T16:31:32;23.50;51.10
37870;DHT22;62531;53.326;-1.368;2022-09-13T16:35:34;23.50;51.00
37870;DHT22;62531;53.326;-1.368;2022-09-13T16:39:35;23.50;51.00
37870;DHT22;62531;53.326;-1.368;2022-09-13T16:43:36;23.50;51.10
37870;DHT22;62531;53.326;-1.368;2022-09-13T16:47:38;23.40;51.10
37870;DHT22;62531;53.326;-1.368;2022-09-13T16:51:40;23.40;51.20
37870;DHT22;62531;53.326;-1.368;2022-09-13T16:55:41;23.30;51.20
37870;DHT22;62531;53.326;-1.368;2022-09-13T16:59:42;23.30;51.30
37870;DHT22;62531;53.326;-1.368;2022-09-13T17:03:47;23.20;51.40
37870;DHT22;62531;53.326;-1.368;2022-09-13T17:07:49;23.20;51.50
37870;DHT22;62531;53.326;-1.368;2022-09-13T17:11:51;23.20;51.50
37870;DHT22;62531;53.326;-1.368;2022-09-13T17:15:52;23.10;51.60
37870;DHT22;62531;53.326;-1.368;2022-09-13T17:19:53;23.10;51.60
37870;DHT22;62531;53.326;-1.368;2022-09-13T17:23:55;23.10;51.70
37870;DHT22;62531;53.326;-1.368;2022-09-13T17:27:56;23.00;51.70
37870;DHT22;62531;53.326;-1.368;2022-09-13T17:31:59;23.00;51.80
37870;DHT22;62531;53.326;-1.368;2022-09-13T17:36:02;23.00;51.90
37870;DHT22;62531;53.326;-1.368;2022-09-13T17:40:04;22.90;51.90
37870;DHT22;62531;53.326;-1.368;2022-09-13T17:44:05;22.90;52.00
37870;DHT22;62531;53.326;-1.368;2022-09-13T17:48:07;22.90;52.00
37870;DHT22;62531;53.326;-1.368;2022-09-13T17:52:08;22.80;52.10
37870;DHT22;62531;53.326;-1.368;2022-09-13T17:56:09;22.80;52.10
37870;DHT22;62531;53.326;-1.368;2022-09-13T18:00:11;22.80;52.20
37870;DHT22;62531;53.326;-1.368;2022-09-13T18:04:16;22.80;52.20
37870;DHT22;62531;53.326;-1.368;2022-09-13T18:08:19;22.80;52.50
37870;DHT22;62531;53.326;-1.368;2022-09-13T18:12:20;22.70;52.70
37870;DHT22;62531;53.326;-1.368;2022-09-13T18:16:24;22.70;52.90
37870;DHT22;62531;53.326;-1.368;2022-09-13T18:20:26;22.70;53.00
37870;DHT22;62531;53.326;-1.368;2022-09-13T18:24:27;22.70;53.10
37870;DHT22;62531;53.326;-1.368;2022-09-13T18:28:29;22.60;53.20
37870;DHT22;62531;53.326;-1.368;2022-09-13T18:32:30;22.60;53.30
37870;DHT22;62531;53.326;-1.368;2022-09-13T18:36:33;22.60;53.40
37870;DHT22;62531;53.326;-1.368;2022-09-13T18:40:34;22.60;53.50
37870;DHT22;62531;53.326;-1.368;2022-09-13T18:44:35;22.60;53.70
37870;DHT22;62531;53.326;-1.368;2022-09-13T18:48:38;22.50;53.70
37870;DHT22;62531;53.326;-1.368;2022-09-13T18:52:40;22.50;53.80
37870;DHT22;62531;53.326;-1.368;2022-09-13T18:56:44;22.50;54.00
37870;DHT22;62531;53.326;-1.368;2022-09-13T19:00:46;22.50;54.10
37870;DHT22;62531;53.326;-1.368;2022-09-13T19:04:47;22.50;54.20
37870;DHT22;62531;53.326;-1.368;2022-09-13T19:08:50;22.50;54.40
37870;DHT22;62531;53.326;-1.368;2022-09-13T19:12:52;22.40;54.40
37870;DHT22;62531;53.326;-1.368;2022-09-13T19:16:56;22.40;55.70
37870;DHT22;62531;53.326;-1.368;2022-09-13T19:21:16;22.40;56.00
37870;DHT22;62531;53.326;-1.368;2022-09-13T19:25:18;22.40;56.20
37870;DHT22;62531;53.326;-1.368;2022-09-13T19:29:21;22.40;56.50
37870;DHT22;62531;53.326;-1.368;2022-09-13T19:33:22;22.30;56.30
37870;DHT22;62531;53.326;-1.368;2022-09-13T19:37:23;22.30;56.30
37870;DHT22;62531;53.326;-1.368;2022-09-13T19:41:26;22.30;56.40
37870;DHT22;62531;53.326;-1.368;2022-09-13T19:45:28;22.30;56.50
37870;DHT22;62531;53.326;-1.368;2022-09-13T19:49:29;22.30;56.50
37870;DHT22;62531;53.326;-1.368;2022-09-13T19:53:31;22.30;56.30
37870;DHT22;62531;53.326;-1.368;2022-09-13T19:57:33;22.30;54.80
37870;DHT22;62531;53.326;-1.368;2022-09-13T20:01:36;22.30;55.30
37870;DHT22;62531;53.326;-1.368;2022-09-13T20:05:38;22.30;55.40
37870;DHT22;62531;53.326;-1.368;2022-09-13T20:09:39;22.30;55.40
37870;DHT22;62531;53.326;-1.368;2022-09-13T20:13:42;22.30;55.30
37870;DHT22;62531;53.326;-1.368;2022-09-13T20:17:44;22.30;55.50
37870;DHT22;62531;53.326;-1.368;2022-09-13T20:21:46;22.30;55.30
37870;DHT22;62531;53.326;-1.368;2022-09-13T20:25:50;22.30;55.40
37870;DHT22;62531;53.326;-1.368;2022-09-13T20:29:52;22.30;55.60
37870;DHT22;62531;53.326;-1.368;2022-09-13T20:33:59;22.30;55.40
37870;DHT22;62531;53.326;-1.368;2022-09-13T20:38:00;22.30;55.50
37870;DHT22;62531;53.326;-1.368;2022-09-13T20:42:02;22.30;55.50
37870;DHT22;62531;53.326;-1.368;2022-09-13T20:46:04;22.30;53.50
37870;DHT22;62531;53.326;-1.368;2022-09-13T20:50:05;22.30;53.90
37870;DHT22;62531;53.326;-1.368;2022-09-13T20:54:07;22.20;52.70
37870;DHT22;62531;53.326;-1.368;2022-09-13T20:58:08;22.20;52.50
37870;DHT22;62531;53.326;-1.368;2022-09-13T21:02:09;22.20;52.40
37870;DHT22;62531;53.326;-1.368;2022-09-13T21:06:11;22.10;52.80
37870;DHT22;62531;53.326;-1.368;2022-09-13T21:10:12;22.10;53.00
37870;DHT22;62531;53.326;-1.368;2022-09-13T21:14:14;22.10;53.20
37870;DHT22;62531;53.326;-1.368;2022-09-13T21:18:16;22.10;53.30
37870;DHT22;62531;53.326;-1.368;2022-09-13T21:22:18;22.10;53.40
37870;DHT22;62531;53.326;-1.368;2022-09-13T21:26:23;22.10;53.80
37870;DHT22;62531;53.326;-1.368;2022-09-13T21:30:25;22.20;53.40
37870;DHT22;62531;53.326;-1.368;2022-09-13T21:34:26;22.10;53.40
37870;DHT22;62531;53.326;-1.368;2022-09-13T21:38:31;22.10;53.40
37870;DHT22;62531;53.326;-1.368;2022-09-13T21:42:32;22.10;53.30
37870;DHT22;62531;53.326;-1.368;2022-09-13T21:46:34;22.10;53.30
37870;DHT22;62531;53.326;-1.368;2022-09-13T21:50:35;22.10;53.30
37870;DHT22;62531;53.326;-1.368;2022-09-13T21:54:37;22.10;53.30
37870;DHT22;62531;53.326;-1.368;2022-09-13T21:58:40;22.10;53.20
37870;DHT22;62531;53.326;-1.368;2022-09-13T22:02:42;22.10;53.30
37870;DHT22;62531;53.326;-1.368;2022-09-13T22:06:45;22.10;53.20
37870;DHT22;62531;53.326;-1.368;2022-09-13T22:10:48;22.10;53.20
37870;DHT22;62531;53.326;-1.368;2022-09-13T22:14:51;22.10;53.10
37870;DHT22;62531;53.326;-1.368;2022-09-13T22:18:55;22.20;53.20
37870;DHT22;62531;53.326;-1.368;2022-09-13T22:22:57;22.20;53.10
37870;DHT22;62531;53.326;-1.368;2022-09-13T22:26:58;22.20;53.10
37870;DHT22;62531;53.326;-1.368;2022-09-13T22:31:14;22.20;53.10
37870;DHT22;62531;53.326;-1.368;2022-09-13T22:35:17;22.20;53.10
37870;DHT22;62531;53.326;-1.368;2022-09-13T22:39:18;22.20;53.00
37870;DHT22;62531;53.326;-1.368;2022-09-13T22:43:19;22.20;53.10
37870;DHT22;62531;53.326;-1.368;2022-09-13T22:47:20;22.20;53.00
37870;DHT22;62531;53.326;-1.368;2022-09-13T22:51:22;22.20;53.00
37870;DHT22;62531;53.326;-1.368;2022-09-13T22:55:23;22.20;53.00
37870;DHT22;62531;53.326;-1.368;2022-09-13T22:59:25;22.20;53.00
37870;DHT22;62531;53.326;-1.368;2022-09-13T23:03:26;22.20;52.90
37870;DHT22;62531;53.326;-1.368;2022-09-13T23:07:27;22.20;53.00
37870;DHT22;62531;53.326;-1.368;2022-09-13T23:11:34;22.20;52.90
37870;DHT22;62531;53.326;-1.368;2022-09-13T23:15:36;22.20;52.90
37870;DHT22;62531;53.326;-1.368;2022-09-13T23:19:37;22.20;52.90
37870;DHT22;62531;53.326;-1.368;2022-09-13T23:23:39;22.20;52.90
37870;DHT22;62531;53.326;-1.368;2022-09-13T23:27:40;22.20;52.90
37870;DHT22;62531;53.326;-1.368;2022-09-13T23:31:42;22.20;52.80
37870;DHT22;62531;53.326;-1.368;2022-09-13T23:35:46;22.20;52.80
37870;DHT22;62531;53.326;-1.368;2022-09-13T23:39:48;22.20;52.90
37870;DHT22;62531;53.326;-1.368;2022-09-13T23:43:50;22.20;52.80
37870;DHT22;62531;53.326;-1.368;2022-09-13T23:47:51;22.20;52.80
37870;DHT22;62531;53.326;-1.368;2022-09-13T23:51:52;22.20;52.80
37870;DHT22;62531;53.326;-1.368;2022-09-13T23:55:54;22.10;52.70
37870;DHT22;62531;53.326;-1.368;2022-09-13T23:59:55;22.20;52.80
